• Join FlightAware (Why Join?)
  • Login
  • US Flag 
05:45AM EDT


 

Airport Tracker/Info


-or-


 

Live Flight TrackerFlight Track Log ✈ AWE3327 ✈ 01-May-2013 ✈ KBUF - KDCA

Flight Track Log - Related Links

Times and Time Zones

All times are in EDT time to prevent confusion due to time zone crossing. See the AWE3327 flight status page for this flight to view local times or setup timezone preferences in your user account.

Time Position Orientation Groundspeed Altitude Reporting Facility
EDT Latitude Longitude Course Direction KTS MPH feet Rate Location/Type
05:48AM 42.9333 -78.7500 177° South 147 169 2,100  Level Buffalo TRACON
05:49AM 42.8833 -78.7667 194° South 226 260 4,200 2,640 Climbing Buffalo TRACON
05:50AM 42.6300 -78.6954 175° South  Level FlightAware Approximate
05:50AM 42.8000 -78.7667 180° South 289 333 7,700  Level Buffalo TRACON
05:51AM 42.5290 -78.6826 173° South  Level FlightAware Approximate
05:51AM 42.7019 -78.7497 173° South 322 371 10,000  Level Cleveland Center
05:52AM 42.4282 -78.6667 180° South  Level FlightAware Approximate
05:52AM 42.6164 -78.7353 173° South 336 387 11,200  Level Cleveland Center
05:53AM 42.3268 -78.6642 177° South  Level FlightAware Approximate
05:53AM 42.5203 -78.7211 174° South 336 387 14,200  Level Cleveland Center
05:54AM 42.4219 -78.7072 174° South 336 387 16,900 2,640 Climbing Cleveland Center
05:55AM 42.3239 -78.6931 174° South 354 407 19,500 2,400 Climbing Cleveland Center
05:56AM 42.2236 -78.6822 175° South 359 413 21,800 2,100 Climbing Cleveland Center
05:57AM 42.1150 -78.6658 174° South 377 434 23,800 1,560 Climbing Cleveland Center
05:58AM 42.0064 -78.6522 175° South 388 447 25,000 600 Climbing Cleveland Center
05:59AM 41.8978 -78.6358 174° South 393 452 25,000  Level Cleveland Center
06:00AM 41.7867 -78.6142 172° South 398 458 25,000  Level Cleveland Center
06:01AM 41.6878 -78.5478 153° Southeast 391 450 25,000  Level Cleveland Center
06:02AM 41.5906 -78.4758 151° Southeast 391 450 25,000  Level Cleveland Center
06:03AM 41.4933 -78.4069 152° Southeast 396 456 25,000  Level Cleveland Center
06:04AM 41.3572 -78.3089 152° Southeast 388 447 25,000  Level New York Center
06:05AM 41.2533 -78.2339 152° Southeast 388 447 25,000  Level New York Center
06:06AM 41.1556 -78.1653 152° Southeast 394 453 25,000  Level New York Center
06:07AM 41.0619 -78.0972 151° Southeast 394 453 25,000  Level New York Center
06:08AM 40.9639 -78.0289 152° Southeast 394 453 25,000 -840 Level New York Center
06:09AM 40.8750 -77.9481 145° Southeast 394 453 23,400 -1,800 Descending New York Center
06:10AM 40.7953 -77.8547 138° Southeast 394 453 21,500 -1,920 Descending New York Center
06:11AM 40.7167 -77.7753 143° Southeast 376 433 19,600 -1,740 Descending New York Center
06:12AM 40.6267 -77.7086 151° Southeast 364 419 18,000 -840 Descending New York Center
06:13AM 40.5386 -77.6478 152° Southeast 352 405 18,000  Level New York Center
06:14AM 40.4525 -77.5847 151° Southeast 357 411 18,000  Level New York Center
06:15AM 40.3686 -77.5219 150° Southeast 357 411 18,000  Level New York Center
06:16AM 40.2942 -77.4383 139° Southeast 352 405 18,000  Level New York Center
06:17AM 40.2217 -77.3553 139° Southeast 352 405 18,000  Level New York Center
06:18AM 40.1403 -77.2825 146° Southeast 352 405 18,000  Level New York Center
06:19AM 40.0494 -77.2250 154° Southeast 360 414 18,000  Level New York Center
06:20AM 39.9631 -77.1683 153° Southeast 360 414 18,000 -480 Level New York Center
06:21AM 39.8667 -77.1000 151° Southeast 350 403 17,100 -960 Descending Potomac TRACON
06:22AM 39.7833 -77.0500 155° Southeast 340 391 16,000 -600 Descending Potomac TRACON
06:23AM 39.6833 -77.0000 159° South 363 418 16,000  Level Potomac TRACON
06:24AM 39.6000 -76.9333 148° Southeast 387 445 16,000 -1,020 Level Potomac TRACON
06:25AM 39.5167 -76.8833 155° Southeast 374 430 14,100 -1,920 Descending Potomac TRACON
06:26AM 39.4333 -76.8333 155° Southeast 359 413 12,600 -1,740 Descending Potomac TRACON
06:27AM 39.3333 -76.7667 153° Southeast 357 411 10,800 -1,320 Descending Potomac TRACON
06:28AM 39.2667 -76.7167 150° Southeast 340 391 10,000 -480 Descending Potomac TRACON
06:29AM 39.1833 -76.6833 163° South 309 356 10,000  Level Potomac TRACON
06:30AM 39.1167 -76.7333 210° Southwest 300 345 10,000 -120 Level Potomac TRACON
06:31AM 39.0500 -76.8000 218° Southwest 299 344 9,800 -600 Descending Potomac TRACON
06:32AM 39.0000 -76.8667 226° Southwest 287 330 8,800 -1,140 Descending Potomac TRACON
06:33AM 38.9333 -76.9333 218° Southwest 286 329 7,600 -1,500 Descending Potomac TRACON
06:34AM 38.8667 -76.9500 191° South 288 331 6,000 -1,740 Descending Potomac TRACON
06:35AM 38.7833 -76.9500 180° South 269 310 4,300 -1,620 Descending Potomac TRACON
06:36AM 38.7333 -76.9333 165° South 239 275 2,900 -900 Descending Potomac TRACON
06:37AM 38.6667 -76.9667 201° Southwest 250 288 2,500 -240 Descending Potomac TRACON
06:38AM 38.6833 -77.0167 293° West 204 235 2,500 -180 Level Potomac TRACON
06:39AM 38.7333 -77.0333 345° North 167 192 2,200 -480 Descending Potomac TRACON
06:40AM 38.7833 -77.0333 360° North 161 185 1,600 -600 Descending Potomac TRACON